Time;durP1;ratioP1;P1;durP2;ratioP2;P2;SDS_P1;SDS_P2;PMS_P1;PMS_P2;Temp;Humidity;BMP_temperature;BMP_pressure;BME280_temperature;BME280_humidity;BME280_pressure;Samples;Min_cycle;Max_cycle;Signal;HPM_P1;HPM_P2
2023/07/09 00:00:13;;;;;;;8.85;6.13;;;;;;;;;;4877823;29;20054;-82
2023/07/09 00:02:40;;;;;;;8.95;5.95;;;;;;;;;;4873338;29;20044;-81
2023/07/09 00:05:06;;;;;;;10.73;7.03;;;;;;;;;;4857143;29;20500;-82
2023/07/09 00:07:33;;;;;;;8.05;6.75;;;;;;;;;;4865697;29;20147;-82
2023/07/09 00:10:00;;;;;;;9.65;6.55;;;;;;;;;;4877744;29;20079;-82
2023/07/09 00:12:26;;;;;;;10.15;6.43;;;;;;;;;;4884734;29;20040;-83
2023/07/09 00:14:54;;;;;;;7.40;6.60;;;;;;;;;;4872597;29;20131;-82
2023/07/09 00:17:26;;;;;;;9.40;6.93;;;;;;;;;;4867716;29;20044;-82
2023/07/09 00:19:53;;;;;;;9.00;6.65;;;;;;;;;;4863714;29;20055;-81
2023/07/09 00:22:20;;;;;;;13.50;6.78;;;;;;;;;;4884980;29;20056;-82
2023/07/09 00:24:50;;;;;;;12.15;7.18;;;;;;;;;;4868526;29;20083;-81
2023/07/09 00:27:21;;;;;;;11.00;7.28;;;;;;;;;;4877574;29;20040;-82
2023/07/09 00:29:47;;;;;;;8.13;6.57;;;;;;;;;;4888123;29;20048;-82
2023/07/09 00:32:15;;;;;;;6.97;6.30;;;;;;;;;;4853801;29;20048;-82
2023/07/09 00:34:42;;;;;;;10.82;6.75;;;;;;;;;;4875078;29;20056;-82
2023/07/09 00:37:12;;;;;;;9.25;6.45;;;;;;;;;;4884604;29;20824;-83
2023/07/09 00:39:40;;;;;;;10.10;6.65;;;;;;;;;;4885506;29;20052;-82
2023/07/09 00:42:07;;;;;;;9.80;6.70;;;;;;;;;;4855070;29;20051;-82
2023/07/09 00:44:33;;;;;;;7.05;6.40;;;;;;;;;;4884884;29;20067;-83
2023/07/09 00:47:02;;;;;;;7.50;6.70;;;;;;;;;;4874814;29;20186;-81
2023/07/09 00:49:29;;;;;;;7.47;6.70;;;;;;;;;;4871065;29;20739;-81
2023/07/09 00:51:57;;;;;;;7.95;7.15;;;;;;;;;;4883969;29;20048;-82
2023/07/09 00:54:30;;;;;;;9.32;7.85;;;;;;;;;;4874140;29;20055;-82
2023/07/09 00:56:58;;;;;;;8.35;7.47;;;;;;;;;;4887145;29;20218;-82
2023/07/09 00:59:25;;;;;;;10.68;7.57;;;;;;;;;;4901128;29;20509;-82
2023/07/09 01:01:51;;;;;;;8.90;7.40;;;;;;;;;;4878704;29;20055;-82
2023/07/09 01:04:21;;;;;;;9.52;7.35;;;;;;;;;;4877456;29;20059;-82
2023/07/09 01:06:52;;;;;;;10.52;7.93;;;;;;;;;;4886953;29;20970;-82
2023/07/09 01:09:18;;;;;;;10.77;7.72;;;;;;;;;;4882317;29;20154;-83
2023/07/09 01:11:45;;;;;;;9.90;7.93;;;;;;;;;;4879455;29;20048;-82
2023/07/09 01:14:12;;;;;;;9.38;7.65;;;;;;;;;;4871105;29;20623;-83
2023/07/09 01:16:42;;;;;;;8.57;7.53;;;;;;;;;;4868035;29;21614;-83
2023/07/09 01:19:09;;;;;;;12.80;7.72;;;;;;;;;;4859813;29;20481;-83
2023/07/09 01:21:35;;;;;;;8.20;7.40;;;;;;;;;;4863822;29;20052;-83
2023/07/09 01:24:14;;;;;;;11.27;8.00;;;;;;;;;;4879798;29;20887;-83
2023/07/09 01:26:40;;;;;;;9.27;7.93;;;;;;;;;;4868101;29;20131;-83
2023/07/09 01:29:07;;;;;;;9.23;7.68;;;;;;;;;;4856355;29;20044;-82
2023/07/09 01:31:36;;;;;;;9.05;8.25;;;;;;;;;;4880206;29;20585;-82
2023/07/09 01:34:02;;;;;;;9.30;8.35;;;;;;;;;;4865366;29;20155;-83
2023/07/09 01:36:28;;;;;;;12.35;8.18;;;;;;;;;;4864664;29;20400;-84
2023/07/09 01:38:56;;;;;;;11.63;7.80;;;;;;;;;;4874447;29;21784;-83
2023/07/09 01:41:23;;;;;;;9.32;8.45;;;;;;;;;;4874909;29;20051;-83
2023/07/09 01:43:49;;;;;;;13.15;8.77;;;;;;;;;;4867331;29;21607;-82
2023/07/09 01:46:16;;;;;;;10.65;7.90;;;;;;;;;;4863655;29;20048;-83
2023/07/09 01:48:44;;;;;;;9.15;8.07;;;;;;;;;;4871836;29;20187;-83
2023/07/09 01:51:11;;;;;;;9.40;8.50;;;;;;;;;;4903930;29;20138;-83
2023/07/09 01:53:38;;;;;;;16.25;8.55;;;;;;;;;;4874622;29;20044;-84
2023/07/09 01:56:07;;;;;;;9.32;8.10;;;;;;;;;;4891032;29;20412;-83
2023/07/09 01:58:33;;;;;;;10.45;8.60;;;;;;;;;;4882649;29;20312;-83
2023/07/09 02:01:00;;;;;;;8.80;7.90;;;;;;;;;;4881077;29;20154;-82
2023/07/09 02:03:26;;;;;;;9.65;8.65;;;;;;;;;;4888223;29;20051;-83
2023/07/09 02:05:57;;;;;;;11.40;8.68;;;;;;;;;;4874158;29;20177;-84
2023/07/09 02:08:23;;;;;;;9.52;8.55;;;;;;;;;;4884702;29;20044;-83
2023/07/09 02:10:52;;;;;;;10.15;8.98;;;;;;;;;;4867377;29;20048;-83
2023/07/09 02:13:18;;;;;;;11.05;8.85;;;;;;;;;;4868415;29;20560;-83
2023/07/09 02:15:45;;;;;;;11.73;9.23;;;;;;;;;;4853049;29;21645;-83
2023/07/09 02:18:11;;;;;;;10.63;9.50;;;;;;;;;;4882932;29;20456;-83
2023/07/09 02:20:38;;;;;;;10.10;8.93;;;;;;;;;;4883386;29;20062;-85
2023/07/09 02:23:04;;;;;;;11.75;9.60;;;;;;;;;;4868440;29;20062;-83
2023/07/09 02:25:30;;;;;;;16.48;9.57;;;;;;;;;;4872516;29;20401;-84
2023/07/09 02:27:56;;;;;;;14.48;9.30;;;;;;;;;;4865916;29;20086;-83
2023/07/09 02:30:22;;;;;;;19.60;10.07;;;;;;;;;;4869564;29;20033;-84
2023/07/09 02:32:49;;;;;;;10.80;9.13;;;;;;;;;;4863627;29;20084;-83
2023/07/09 02:35:15;;;;;;;12.40;9.43;;;;;;;;;;4865712;29;20054;-84
2023/07/09 02:37:41;;;;;;;15.02;8.65;;;;;;;;;;4875909;29;20075;-83
2023/07/09 02:40:09;;;;;;;9.52;8.20;;;;;;;;;;4876483;29;20064;-82
2023/07/09 02:42:35;;;;;;;19.42;9.88;;;;;;;;;;4890924;29;21012;-82
2023/07/09 02:45:04;;;;;;;10.32;9.23;;;;;;;;;;4895320;29;20033;-83
2023/07/09 02:47:30;;;;;;;12.80;10.40;;;;;;;;;;4875958;29;20048;-82
2023/07/09 02:49:57;;;;;;;10.98;9.75;;;;;;;;;;4878137;29;20048;-82
2023/07/09 02:52:23;;;;;;;14.15;9.38;;;;;;;;;;4880000;29;20044;-83
2023/07/09 02:54:49;;;;;;;11.60;9.43;;;;;;;;;;4879238;29;20060;-83
2023/07/09 02:57:17;;;;;;;10.93;9.82;;;;;;;;;;4890713;29;20980;-83
2023/07/09 02:59:43;;;;;;;11.48;10.35;;;;;;;;;;4894708;29;20135;-83
2023/07/09 03:02:12;;;;;;;10.77;9.68;;;;;;;;;;4877271;29;20044;-83
2023/07/09 03:04:38;;;;;;;12.02;9.57;;;;;;;;;;4916174;29;20112;-84
2023/07/09 03:07:05;;;;;;;14.40;9.13;;;;;;;;;;4897461;29;21013;-84
2023/07/09 03:09:31;;;;;;;14.55;10.15;;;;;;;;;;4880934;29;22227;-84
2023/07/09 03:11:57;;;;;;;12.13;9.60;;;;;;;;;;4883732;29;20126;-84
2023/07/09 03:14:23;;;;;;;13.18;10.27;;;;;;;;;;4893844;29;20512;-84
2023/07/09 03:16:50;;;;;;;12.38;9.75;;;;;;;;;;4879408;29;20051;-83
2023/07/09 03:19:16;;;;;;;14.95;10.18;;;;;;;;;;4899566;29;20044;-84
2023/07/09 03:21:43;;;;;;;10.48;9.30;;;;;;;;;;4878795;29;20553;-83
2023/07/09 03:24:09;;;;;;;11.25;10.02;;;;;;;;;;4879873;29;20048;-83
2023/07/09 03:26:35;;;;;;;10.90;9.80;;;;;;;;;;4866168;29;20217;-83
2023/07/09 03:29:01;;;;;;;12.13;9.73;;;;;;;;;;4866339;29;20135;-84
2023/07/09 03:31:27;;;;;;;11.65;9.20;;;;;;;;;;4867691;29;20108;-83
2023/07/09 03:33:54;;;;;;;10.88;9.10;;;;;;;;;;4886343;29;20060;-83
2023/07/09 03:36:20;;;;;;;10.65;8.80;;;;;;;;;;4890360;29;20533;-82
2023/07/09 03:38:47;;;;;;;10.93;8.77;;;;;;;;;;4915474;29;20103;-82
2023/07/09 03:41:16;;;;;;;10.90;8.63;;;;;;;;;;4898186;29;20052;-83
2023/07/09 03:43:42;;;;;;;11.35;8.38;;;;;;;;;;4892930;29;20050;-84
2023/07/09 03:46:08;;;;;;;10.65;9.02;;;;;;;;;;4890867;29;20064;-84
2023/07/09 03:48:34;;;;;;;10.55;8.98;;;;;;;;;;4878029;29;22027;-83
2023/07/09 03:51:01;;;;;;;9.57;8.27;;;;;;;;;;4879658;29;20104;-85
2023/07/09 03:53:27;;;;;;;14.98;8.60;;;;;;;;;;4885472;29;20130;-83
2023/07/09 03:55:56;;;;;;;11.45;9.32;;;;;;;;;;4886564;29;20048;-83
2023/07/09 03:58:24;;;;;;;13.45;9.80;;;;;;;;;;4885535;29;20420;-83
2023/07/09 04:00:50;;;;;;;15.40;9.60;;;;;;;;;;4882291;29;20039;-83
2023/07/09 04:03:16;;;;;;;14.15;9.15;;;;;;;;;;4875496;29;20142;-84
2023/07/09 04:05:43;;;;;;;17.85;9.00;;;;;;;;;;4883718;29;20152;-84
2023/07/09 04:08:11;;;;;;;14.75;8.90;;;;;;;;;;4881022;29;20049;-83
2023/07/09 04:10:37;;;;;;;15.32;9.05;;;;;;;;;;4875813;29;20167;-83
2023/07/09 04:13:03;;;;;;;12.63;8.40;;;;;;;;;;4875401;29;21773;-84
2023/07/09 04:15:30;;;;;;;20.40;9.38;;;;;;;;;;4883650;29;20044;-84
2023/07/09 04:17:56;;;;;;;12.60;8.63;;;;;;;;;;4882501;29;20497;-84
2023/07/09 04:20:23;;;;;;;20.73;8.95;;;;;;;;;;4884158;29;20583;-84
2023/07/09 04:22:49;;;;;;;16.35;8.50;;;;;;;;;;4885038;29;20044;-83
2023/07/09 04:25:15;;;;;;;14.82;8.75;;;;;;;;;;4899735;29;20549;-83
2023/07/09 04:27:42;;;;;;;9.43;7.82;;;;;;;;;;4896589;29;20063;-85
2023/07/09 04:30:10;;;;;;;13.40;8.75;;;;;;;;;;4883885;29;20110;-84
2023/07/09 04:32:37;;;;;;;9.85;7.95;;;;;;;;;;4869095;29;20079;-84
2023/07/09 04:35:06;;;;;;;15.05;7.95;;;;;;;;;;4871352;29;20150;-83
2023/07/09 04:37:32;;;;;;;9.32;8.23;;;;;;;;;;4875066;29;21152;-84
2023/07/09 04:39:58;;;;;;;11.57;8.40;;;;;;;;;;4881657;29;20044;-84
2023/07/09 04:42:27;;;;;;;14.05;8.63;;;;;;;;;;4881574;29;20058;-83
2023/07/09 04:44:53;;;;;;;11.52;8.48;;;;;;;;;;4866752;29;20055;-83
2023/07/09 04:47:19;;;;;;;13.00;8.52;;;;;;;;;;4881061;29;20048;-84
2023/07/09 04:49:45;;;;;;;10.60;8.57;;;;;;;;;;4873763;29;20097;-84
2023/07/09 04:52:11;;;;;;;12.80;8.90;;;;;;;;;;4875917;29;20047;-84
2023/07/09 04:54:40;;;;;;;9.10;8.20;;;;;;;;;;4892834;29;20051;-84
2023/07/09 04:57:06;;;;;;;11.20;8.75;;;;;;;;;;4881143;29;22174;-84
2023/07/09 04:59:35;;;;;;;11.50;8.48;;;;;;;;;;4882444;29;20067;-84
2023/07/09 05:02:07;;;;;;;11.25;8.13;;;;;;;;;;4879962;29;20111;-84
2023/07/09 05:04:37;;;;;;;9.13;8.10;;;;;;;;;;4880484;29;20103;-85
2023/07/09 05:07:06;;;;;;;10.25;8.55;;;;;;;;;;4900388;29;20040;-84
2023/07/09 05:09:36;;;;;;;9.77;7.97;;;;;;;;;;4884481;29;20068;-85
2023/07/09 05:12:02;;;;;;;9.48;7.60;;;;;;;;;;4881229;29;20123;-84
2023/07/09 05:14:31;;;;;;;14.27;7.75;;;;;;;;;;4881115;29;20052;-85
2023/07/09 05:17:05;;;;;;;11.93;8.02;;;;;;;;;;4881986;29;20048;-84
2023/07/09 05:19:31;;;;;;;11.65;7.55;;;;;;;;;;4876080;29;20111;-84
2023/07/09 05:21:57;;;;;;;10.45;7.40;;;;;;;;;;4882451;29;20036;-83
2023/07/09 05:24:27;;;;;;;10.52;7.40;;;;;;;;;;4876446;29;20051;-84
2023/07/09 05:26:53;;;;;;;9.43;7.78;;;;;;;;;;4882634;29;20063;-83
2023/07/09 05:29:22;;;;;;;13.02;8.13;;;;;;;;;;4867748;29;20059;-84
2023/07/09 05:31:48;;;;;;;11.95;8.40;;;;;;;;;;4876606;29;20135;-83
2023/07/09 05:34:14;;;;;;;12.00;8.50;;;;;;;;;;4883620;29;20192;-83
2023/07/09 05:36:40;;;;;;;11.25;7.97;;;;;;;;;;4885304;29;20127;-83
2023/07/09 05:39:09;;;;;;;9.18;7.95;;;;;;;;;;4882697;29;20528;-83
2023/07/09 05:41:36;;;;;;;9.10;8.20;;;;;;;;;;4888862;29;20032;-83
2023/07/09 05:44:02;;;;;;;13.10;7.95;;;;;;;;;;4878026;29;20187;-84
2023/07/09 05:46:28;;;;;;;11.52;7.57;;;;;;;;;;4880109;29;20044;-83
2023/07/09 05:48:54;;;;;;;12.50;8.35;;;;;;;;;;4879628;29;20063;-84
2023/07/09 05:51:24;;;;;;;7.95;6.90;;;;;;;;;;4901039;29;20029;-83
2023/07/09 05:53:50;;;;;;;12.18;6.80;;;;;;;;;;4893269;29;20040;-84
2023/07/09 05:56:24;;;;;;;10.18;7.13;;;;;;;;;;4890360;29;20075;-83
2023/07/09 05:58:51;;;;;;;9.68;7.32;;;;;;;;;;4873921;29;20052;-81
2023/07/09 06:01:17;;;;;;;10.82;7.80;;;;;;;;;;4908494;29;20043;-85
2023/07/09 06:03:43;;;;;;;9.30;7.05;;;;;;;;;;4895920;29;20111;-85
2023/07/09 06:06:09;;;;;;;9.75;7.13;;;;;;;;;;4898090;29;20052;-85
2023/07/09 06:08:36;;;;;;;9.02;7.30;;;;;;;;;;4876367;29;20112;-83
2023/07/09 06:11:03;;;;;;;15.70;7.93;;;;;;;;;;4891383;29;20496;-83
2023/07/09 06:13:30;;;;;;;10.65;7.20;;;;;;;;;;4894939;29;20202;-83
2023/07/09 06:15:59;;;;;;;10.40;7.82;;;;;;;;;;4906981;29;20037;-83
2023/07/09 06:18:31;;;;;;;11.27;8.07;;;;;;;;;;4887090;29;20047;-83
2023/07/09 06:21:01;;;;;;;11.70;8.05;;;;;;;;;;4882565;29;20187;-84
2023/07/09 06:23:27;;;;;;;9.63;8.00;;;;;;;;;;4910629;29;20039;-87
2023/07/09 06:25:54;;;;;;;16.42;9.07;;;;;;;;;;4918594;29;20040;-87
2023/07/09 06:28:21;;;;;;;11.25;8.80;;;;;;;;;;4902490;29;20055;-86
2023/07/09 06:30:48;;;;;;;10.45;7.82;;;;;;;;;;4908645;29;20068;-87
2023/07/09 06:33:15;;;;;;;11.13;8.50;;;;;;;;;;4893572;29;20052;-87
2023/07/09 06:35:51;;;;;;;12.40;8.52;;;;;;;;;;4920143;29;20079;-87
2023/07/09 06:38:18;;;;;;;15.35;8.52;;;;;;;;;;4910473;29;20062;-85
2023/07/09 06:40:44;;;;;;;9.20;8.20;;;;;;;;;;4912730;29;20040;-87
2023/07/09 06:43:13;;;;;;;12.63;8.23;;;;;;;;;;4899115;29;20162;-86
2023/07/09 06:45:39;;;;;;;13.18;8.65;;;;;;;;;;4899026;29;20048;-86
2023/07/09 06:48:08;;;;;;;11.57;8.82;;;;;;;;;;4895747;29;20053;-86
2023/07/09 06:50:34;;;;;;;11.98;8.38;;;;;;;;;;4900495;29;20154;-85
2023/07/09 06:53:03;;;;;;;13.70;8.88;;;;;;;;;;4895259;29;20047;-85
2023/07/09 06:55:31;;;;;;;10.30;8.68;;;;;;;;;;4908066;29;20048;-86
2023/07/09 06:58:00;;;;;;;14.18;8.98;;;;;;;;;;4893392;29;20087;-87
2023/07/09 07:00:26;;;;;;;12.70;8.75;;;;;;;;;;4889586;29;20127;-87
2023/07/09 07:02:53;;;;;;;14.30;9.27;;;;;;;;;;4907862;29;20051;-88
2023/07/09 07:05:19;;;;;;;10.05;8.57;;;;;;;;;;4894359;29;20083;-86
2023/07/09 07:07:45;;;;;;;11.68;8.52;;;;;;;;;;4890458;29;20044;-88
2023/07/09 07:10:12;;;;;;;10.80;8.52;;;;;;;;;;4893579;29;20563;-88
2023/07/09 07:12:43;;;;;;;11.95;8.45;;;;;;;;;;4898694;29;20102;-86
2023/07/09 07:15:13;;;;;;;12.23;8.27;;;;;;;;;;4887528;29;20067;-87
2023/07/09 07:17:42;;;;;;;14.93;7.97;;;;;;;;;;4906670;29;20071;-87
2023/07/09 07:20:31;;;;;;;13.60;8.05;;;;;;;;;;4888577;29;20942;-87
2023/07/09 07:22:59;;;;;;;10.05;7.78;;;;;;;;;;4893483;29;20590;-88
2023/07/09 07:25:26;;;;;;;17.15;8.50;;;;;;;;;;4893456;29;20051;-87
2023/07/09 07:27:53;;;;;;;16.35;9.18;;;;;;;;;;4883592;29;20122;-87
2023/07/09 07:30:24;;;;;;;12.05;8.32;;;;;;;;;;4901453;29;20059;-86
2023/07/09 07:32:50;;;;;;;11.80;7.85;;;;;;;;;;4892157;29;20703;-86
2023/07/09 07:35:18;;;;;;;10.52;8.95;;;;;;;;;;4904203;29;20067;-87
2023/07/09 07:37:44;;;;;;;11.52;8.68;;;;;;;;;;4900230;29;20503;-88
2023/07/09 07:40:11;;;;;;;12.15;8.90;;;;;;;;;;4899558;29;20088;-87
2023/07/09 07:42:37;;;;;;;10.32;8.43;;;;;;;;;;4868279;29;20067;-85
2023/07/09 07:45:05;;;;;;;12.73;8.65;;;;;;;;;;4892153;29;23337;-88
2023/07/09 07:47:31;;;;;;;13.88;7.82;;;;;;;;;;4892273;29;20056;-85
2023/07/09 07:49:57;;;;;;;10.32;8.07;;;;;;;;;;4899573;29;20044;-86
2023/07/09 07:52:24;;;;;;;11.50;7.75;;;;;;;;;;4888983;29;20050;-83
2023/07/09 07:54:50;;;;;;;16.00;8.05;;;;;;;;;;4910127;29;20082;-82
2023/07/09 07:57:23;;;;;;;11.13;8.07;;;;;;;;;;4888760;29;20080;-82
2023/07/09 07:59:49;;;;;;;10.73;7.68;;;;;;;;;;4906125;29;20099;-81
2023/07/09 08:02:15;;;;;;;11.98;8.15;;;;;;;;;;4888089;29;20098;-82
2023/07/09 08:04:41;;;;;;;13.60;7.88;;;;;;;;;;4899734;29;20106;-82
2023/07/09 08:07:08;;;;;;;9.40;8.05;;;;;;;;;;4888041;29;20165;-83
2023/07/09 08:09:34;;;;;;;10.40;7.97;;;;;;;;;;4889610;29;20121;-82
2023/07/09 08:12:01;;;;;;;15.55;8.27;;;;;;;;;;4874964;29;20055;-82
2023/07/09 08:14:27;;;;;;;13.23;8.85;;;;;;;;;;4874312;29;20131;-81
2023/07/09 08:16:53;;;;;;;13.65;8.63;;;;;;;;;;4894654;29;20534;-82
2023/07/09 08:19:20;;;;;;;12.13;8.45;;;;;;;;;;4887515;29;20134;-83
2023/07/09 08:21:46;;;;;;;14.23;8.43;;;;;;;;;;4885075;29;21223;-82
2023/07/09 08:24:14;;;;;;;10.85;8.05;;;;;;;;;;4885339;29;20043;-82
2023/07/09 08:26:40;;;;;;;17.23;8.52;;;;;;;;;;4866855;29;20086;-82
2023/07/09 08:29:06;;;;;;;12.93;7.80;;;;;;;;;;4880637;29;22065;-82
2023/07/09 08:31:32;;;;;;;11.73;8.23;;;;;;;;;;4893368;29;20777;-81
2023/07/09 08:33:58;;;;;;;13.38;8.18;;;;;;;;;;4879407;29;20068;-81
2023/07/09 08:36:24;;;;;;;11.43;7.93;;;;;;;;;;4883593;29;20130;-82
2023/07/09 08:38:50;;;;;;;15.23;8.05;;;;;;;;;;4881895;29;20043;-83
2023/07/09 08:41:39;;;;;;;8.02;6.85;;;;;;;;;;4883022;29;20127;-81
2023/07/09 08:44:12;;;;;;;15.50;7.65;;;;;;;;;;4882790;29;20136;-82
2023/07/09 08:46:44;;;;;;;16.70;8.10;;;;;;;;;;4886582;29;20618;-84
2023/07/09 08:49:20;;;;;;;14.57;7.82;;;;;;;;;;4878601;29;20075;-83
2023/07/09 08:51:46;;;;;;;14.57;7.93;;;;;;;;;;4866815;29;20268;-81
2023/07/09 08:54:21;;;;;;;12.98;8.48;;;;;;;;;;4904675;29;20131;-82
2023/07/09 08:56:47;;;;;;;13.82;7.70;;;;;;;;;;4900912;29;20054;-81
2023/07/09 08:59:16;;;;;;;18.40;8.55;;;;;;;;;;4851876;29;20087;-82
2023/07/09 09:01:47;;;;;;;14.77;8.40;;;;;;;;;;4883603;29;20056;-81
2023/07/09 09:04:21;;;;;;;13.18;8.00;;;;;;;;;;4871400;29;20091;-82
2023/07/09 09:06:50;;;;;;;14.32;8.00;;;;;;;;;;4881802;29;20054;-81
2023/07/09 09:09:36;;;;;;;15.32;7.75;;;;;;;;;;4867481;29;20083;-83
2023/07/09 09:12:09;;;;;;;11.73;7.63;;;;;;;;;;4884098;29;20083;-84
2023/07/09 09:14:47;;;;;;;10.15;8.15;;;;;;;;;;4868108;29;20048;-84
2023/07/09 09:17:20;;;;;;;10.50;7.75;;;;;;;;;;4883943;29;20548;-84
2023/07/09 09:19:55;;;;;;;9.95;8.07;;;;;;;;;;4870800;29;20681;-84
2023/07/09 09:22:22;;;;;;;13.20;8.30;;;;;;;;;;4880780;29;20048;-85
2023/07/09 09:24:58;;;;;;;11.15;8.07;;;;;;;;;;4882713;29;20044;-84
2023/07/09 09:27:24;;;;;;;12.70;7.88;;;;;;;;;;4890790;29;20068;-84
2023/07/09 09:29:50;;;;;;;12.25;7.90;;;;;;;;;;4889110;29;20649;-84
2023/07/09 09:32:27;;;;;;;12.98;8.13;;;;;;;;;;4867605;29;20573;-83
2023/07/09 09:34:54;;;;;;;10.43;7.70;;;;;;;;;;4872429;29;20052;-83
2023/07/09 09:37:26;;;;;;;11.82;8.27;;;;;;;;;;4861872;29;20059;-82
2023/07/09 09:39:52;;;;;;;14.98;8.82;;;;;;;;;;4866419;29;20048;-83
2023/07/09 09:42:18;;;;;;;11.90;7.88;;;;;;;;;;4870311;29;20420;-88
2023/07/09 09:44:45;;;;;;;11.57;7.60;;;;;;;;;;4866597;29;20035;-87
2023/07/09 09:47:12;;;;;;;13.27;8.20;;;;;;;;;;4869570;29;20099;-87
2023/07/09 09:49:39;;;;;;;11.13;7.50;;;;;;;;;;4874031;29;20056;-86
2023/07/09 09:52:14;;;;;;;11.60;8.50;;;;;;;;;;4890686;29;20753;-87
2023/07/09 09:54:41;;;;;;;11.95;7.38;;;;;;;;;;4885969;29;20135;-86
2023/07/09 09:57:17;;;;;;;12.10;8.30;;;;;;;;;;4889377;29;20140;-87
2023/07/09 09:59:43;;;;;;;10.18;8.43;;;;;;;;;;4893459;29;20210;-87
2023/07/09 10:02:20;;;;;;;11.55;7.85;;;;;;;;;;4881357;29;20581;-87
2023/07/09 10:04:46;;;;;;;12.82;8.43;;;;;;;;;;4903211;29;20147;-87
2023/07/09 10:07:18;;;;;;;10.30;7.60;;;;;;;;;;4886220;29;20630;-87
2023/07/09 10:09:50;;;;;;;14.83;8.53;;;;;;;;;;4900114;29;20048;-87
2023/07/09 10:12:22;;;;;;;12.13;8.00;;;;;;;;;;4870769;29;20040;-87
2023/07/09 10:14:48;;;;;;;11.60;8.25;;;;;;;;;;4887376;29;20048;-85
2023/07/09 10:17:32;;;;;;;13.98;8.77;;;;;;;;;;4885548;29;20068;-85
2023/07/09 10:20:17;;;;;;;15.60;8.90;;;;;;;;;;4884577;29;20044;-86
2023/07/09 10:22:46;;;;;;;11.48;8.95;;;;;;;;;;4885234;29;20553;-87
2023/07/09 10:25:30;;;;;;;13.90;8.45;;;;;;;;;;4869868;29;20044;-87
2023/07/09 10:28:23;;;;;;;12.95;9.25;;;;;;;;;;4885852;29;20048;-87
2023/07/09 10:31:14;;;;;;;13.35;9.10;;;;;;;;;;4874297;29;20055;-86
2023/07/09 10:33:55;;;;;;;15.30;9.45;;;;;;;;;;4873526;29;20459;-87
2023/07/09 10:36:24;;;;;;;12.75;8.38;;;;;;;;;;4873883;29;20052;-86
2023/07/09 10:38:51;;;;;;;17.90;9.50;;;;;;;;;;4884459;29;20048;-86
2023/07/09 10:41:19;;;;;;;11.50;8.30;;;;;;;;;;4871149;29;20113;-86
2023/07/09 10:43:51;;;;;;;12.75;9.48;;;;;;;;;;4873524;29;20564;-87
2023/07/09 10:46:19;;;;;;;16.70;11.60;;;;;;;;;;4874357;29;20055;-87
2023/07/09 10:48:47;;;;;;;19.67;12.57;;;;;;;;;;4871831;29;21086;-87
2023/07/09 10:51:30;;;;;;;19.00;11.20;;;;;;;;;;4886285;29;20127;-87
2023/07/09 10:53:58;;;;;;;14.70;12.65;;;;;;;;;;4889818;29;20461;-88
2023/07/09 10:56:29;;;;;;;20.35;10.82;;;;;;;;;;4887999;29;20436;-87
2023/07/09 10:59:04;;;;;;;17.48;11.05;;;;;;;;;;4886535;29;20072;-87
2023/07/09 11:01:37;;;;;;;16.35;11.02;;;;;;;;;;4889862;29;20052;-87
2023/07/09 11:04:06;;;;;;;13.82;10.35;;;;;;;;;;4889211;29;20067;-86
2023/07/09 11:06:32;;;;;;;14.45;10.85;;;;;;;;;;4886120;29;20533;-87
2023/07/09 11:08:59;;;;;;;10.90;9.57;;;;;;;;;;4894479;29;20044;-88
2023/07/09 11:11:25;;;;;;;14.07;10.73;;;;;;;;;;4881935;29;20049;-87
2023/07/09 11:13:54;;;;;;;15.70;10.98;;;;;;;;;;4873624;29;20051;-88
2023/07/09 11:16:32;;;;;;;17.75;11.68;;;;;;;;;;4874930;29;20475;-87
2023/07/09 11:19:02;;;;;;;18.67;12.25;;;;;;;;;;4888008;29;20673;-87
2023/07/09 11:21:28;;;;;;;17.98;12.23;;;;;;;;;;4890650;29;20044;-86
2023/07/09 11:23:56;;;;;;;14.82;11.63;;;;;;;;;;4892568;29;20099;-87
2023/07/09 11:26:33;;;;;;;21.13;11.77;;;;;;;;;;4889255;29;20056;-87
2023/07/09 11:29:02;;;;;;;14.73;11.32;;;;;;;;;;4879507;29;21297;-88
2023/07/09 11:31:35;;;;;;;17.45;12.20;;;;;;;;;;4886863;29;20044;-88
2023/07/09 11:34:08;;;;;;;14.90;11.63;;;;;;;;;;4892194;29;20108;-87
2023/07/09 11:36:35;;;;;;;20.77;11.55;;;;;;;;;;4893554;29;20108;-88
2023/07/09 11:39:02;;;;;;;18.77;12.52;;;;;;;;;;4911116;29;20119;-87
2023/07/09 11:41:34;;;;;;;14.48;12.93;;;;;;;;;;4889182;29;20107;-86
2023/07/09 11:44:09;;;;;;;13.87;10.63;;;;;;;;;;4905948;29;20080;-86
2023/07/09 11:46:37;;;;;;;15.85;11.70;;;;;;;;;;4908018;29;20307;-88
2023/07/09 11:49:04;;;;;;;18.73;11.85;;;;;;;;;;4892202;29;20062;-88
2023/07/09 11:51:38;;;;;;;18.17;12.30;;;;;;;;;;4895765;29;20041;-87
2023/07/09 11:54:04;;;;;;;15.25;11.68;;;;;;;;;;4893117;29;20717;-87
2023/07/09 11:56:31;;;;;;;13.43;12.02;;;;;;;;;;4887332;29;20051;-87
2023/07/09 11:58:58;;;;;;;18.52;11.85;;;;;;;;;;4872941;29;20593;-88
2023/07/09 12:01:29;;;;;;;19.10;11.40;;;;;;;;;;4889833;29;20044;-88
2023/07/09 12:03:56;;;;;;;17.92;12.52;;;;;;;;;;4888917;29;20044;-87
2023/07/09 12:06:24;;;;;;;18.08;12.80;;;;;;;;;;4889265;29;20077;-88
2023/07/09 12:08:51;;;;;;;13.73;11.30;;;;;;;;;;4876761;29;20045;-88
2023/07/09 12:11:25;;;;;;;15.85;10.60;;;;;;;;;;4871907;29;20074;-88
2023/07/09 12:13:51;;;;;;;16.55;10.95;;;;;;;;;;4891272;29;20040;-86
2023/07/09 12:16:24;;;;;;;20.35;11.70;;;;;;;;;;4876006;29;20750;-87
2023/07/09 12:18:50;;;;;;;15.25;10.63;;;;;;;;;;4877189;29;20163;-87
2023/07/09 12:21:16;;;;;;;12.35;10.75;;;;;;;;;;4885538;29;20044;-87
2023/07/09 12:23:42;;;;;;;14.20;10.63;;;;;;;;;;4858121;29;20486;-87
2023/07/09 12:26:16;;;;;;;14.35;11.02;;;;;;;;;;4886623;29;20202;-88
2023/07/09 12:28:42;;;;;;;13.02;9.98;;;;;;;;;;4874792;29;20047;-88
2023/07/09 12:31:15;;;;;;;13.38;9.75;;;;;;;;;;4874309;29;20051;-87
2023/07/09 12:33:40;;;;;;;;;;;;;;;;;;4887399;29;20040;-88
2023/07/09 12:36:07;;;;;;;15.50;9.95;;;;;;;;;;4874360;29;19970;-88
2023/07/09 12:38:40;;;;;;;16.88;9.98;;;;;;;;;;4885384;29;20100;-88
2023/07/09 12:41:14;;;;;;;17.17;9.05;;;;;;;;;;4859278;29;20050;-88
2023/07/09 12:43:40;;;;;;;12.98;9.68;;;;;;;;;;4887709;29;20466;-89
2023/07/09 12:46:06;;;;;;;12.18;8.48;;;;;;;;;;4861728;29;20062;-88
2023/07/09 12:48:32;;;;;;;9.30;8.40;;;;;;;;;;4870615;29;20135;-87
2023/07/09 12:51:00;;;;;;;11.38;9.45;;;;;;;;;;4889075;29;20132;-87
2023/07/09 12:53:28;;;;;;;10.57;8.23;;;;;;;;;;4886069;29;20111;-87
2023/07/09 12:56:01;;;;;;;12.73;7.93;;;;;;;;;;4885100;29;20138;-87
2023/07/09 12:58:32;;;;;;;11.35;7.90;;;;;;;;;;4887499;29;20159;-88
2023/07/09 13:01:00;;;;;;;8.82;7.82;;;;;;;;;;4889178;29;20040;-88
2023/07/09 13:03:30;;;;;;;14.70;7.93;;;;;;;;;;4887217;29;20063;-88
2023/07/09 13:05:58;;;;;;;8.75;7.50;;;;;;;;;;4894454;29;20044;-87
2023/07/09 13:08:28;;;;;;;13.68;7.72;;;;;;;;;;4885623;29;20255;-88
2023/07/09 13:10:56;;;;;;;9.38;7.82;;;;;;;;;;4877852;29;20048;-88
2023/07/09 13:13:23;;;;;;;10.70;7.40;;;;;;;;;;4892737;29;20040;-88
2023/07/09 13:15:56;;;;;;;11.30;8.18;;;;;;;;;;4907931;29;20051;-88
2023/07/09 13:18:24;;;;;;;9.98;7.07;;;;;;;;;;4894691;29;20056;-88
2023/07/09 13:20:50;;;;;;;7.95;6.90;;;;;;;;;;4887738;29;20052;-88
2023/07/09 13:23:16;;;;;;;10.60;7.32;;;;;;;;;;4899586;29;20047;-83
2023/07/09 13:25:42;;;;;;;8.63;7.10;;;;;;;;;;4889804;29;20048;-82
2023/07/09 13:28:15;;;;;;;13.80;6.57;;;;;;;;;;4897709;29;20204;-87
2023/07/09 13:30:41;;;;;;;;;;;;;;;;;;4902465;29;20044;-88
2023/07/09 13:33:11;;;;;;;11.00;7.18;;;;;;;;;;4910688;29;19999;-89
2023/07/09 13:35:37;;;;;;;10.25;7.43;;;;;;;;;;4889662;29;20578;-87
2023/07/09 13:38:10;;;;;;;14.05;6.72;;;;;;;;;;4904916;29;20112;-88
2023/07/09 13:40:36;;;;;;;17.35;7.28;;;;;;;;;;4904155;29;20048;-88
2023/07/09 13:43:03;;;;;;;10.10;7.22;;;;;;;;;;4897507;29;20139;-88
2023/07/09 13:45:29;;;;;;;11.07;6.70;;;;;;;;;;4900670;29;20841;-87
2023/07/09 13:47:55;;;;;;;9.45;7.53;;;;;;;;;;4902160;29;20063;-88
2023/07/09 13:50:23;;;;;;;11.85;7.15;;;;;;;;;;4878808;29;20075;-87
2023/07/09 13:52:49;;;;;;;12.52;7.75;;;;;;;;;;4876420;29;20048;-87
2023/07/09 13:55:20;;;;;;;10.43;7.82;;;;;;;;;;4881328;29;20040;-88
2023/07/09 13:57:47;;;;;;;10.30;7.50;;;;;;;;;;4884620;29;20740;-87
2023/07/09 14:00:13;;;;;;;16.02;8.48;;;;;;;;;;4892227;29;20130;-87
2023/07/09 14:02:40;;;;;;;13.25;7.25;;;;;;;;;;4898705;29;20062;-88
2023/07/09 14:05:07;;;;;;;10.20;7.20;;;;;;;;;;4878010;29;20050;-86
2023/07/09 14:07:35;;;;;;;13.02;7.93;;;;;;;;;;4897311;29;20052;-85
2023/07/09 14:10:02;;;;;;;10.05;8.27;;;;;;;;;;4896184;29;20039;-85
2023/07/09 14:12:29;;;;;;;11.52;8.43;;;;;;;;;;4891471;29;20036;-86
2023/07/09 14:15:03;;;;;;;14.38;8.65;;;;;;;;;;4881925;29;20409;-87
2023/07/09 14:17:30;;;;;;;9.40;7.57;;;;;;;;;;4877239;29;20041;-86
2023/07/09 14:19:58;;;;;;;9.68;7.78;;;;;;;;;;4881092;29;20055;-88
2023/07/09 14:22:28;;;;;;;13.73;7.85;;;;;;;;;;4884373;29;20081;-86
2023/07/09 14:24:54;;;;;;;11.52;8.50;;;;;;;;;;4891212;29;20048;-87
2023/07/09 14:27:20;;;;;;;16.90;8.45;;;;;;;;;;4895490;29;20103;-87
2023/07/09 14:29:46;;;;;;;10.70;9.05;;;;;;;;;;4896028;29;20045;-86
2023/07/09 14:32:42;;;;;;;13.15;9.43;;;;;;;;;;4867299;29;20048;-87
2023/07/09 14:35:16;;;;;;;13.27;9.07;;;;;;;;;;4886605;29;20477;-86
2023/07/09 14:37:43;;;;;;;13.75;9.75;;;;;;;;;;4903376;29;20127;-87